Time;durP1;ratioP1;P1;durP2;ratioP2;P2;SDS_P1;SDS_P2;PMS_P1;PMS_P2;Temp;Humidity;BMP_temperature;BMP_pressure;BME280_temperature;BME280_humidity;BME280_pressure;Samples;Min_cycle;Max_cycle;Signal;HPM_P1;HPM_P2
2023/05/09 00:00:33;;;;;;;8.30;2.13;;;;;;;10.90;59.03;101404.53;6098353;28;20029;-72
2023/05/09 00:03:28;;;;;;;4.70;1.77;;;;;;;10.83;59.27;101406.84;6097549;28;20540;-71
2023/05/09 00:06:24;;;;;;;5.67;2.77;;;;;;;10.75;59.66;101399.56;6097841;28;20048;-71
2023/05/09 00:09:20;;;;;;;6.22;2.25;;;;;;;10.74;59.91;101403.16;6097771;28;20025;-72
2023/05/09 00:12:15;;;;;;;5.50;2.20;;;;;;;10.61;60.26;101383.97;6098161;28;20033;-72
2023/05/09 00:15:10;;;;;;;4.77;2.07;;;;;;;10.68;60.44;101410.81;6097531;28;20082;-71
2023/05/09 00:18:06;;;;;;;5.73;2.80;;;;;;;10.62;60.69;101408.69;6097997;28;20029;-69
2023/05/09 00:21:03;;;;;;;8.23;2.53;;;;;;;10.53;61.24;101410.28;6097456;28;20079;-70
2023/05/09 00:23:59;;;;;;;2.78;1.95;;;;;;;10.42;61.95;101393.59;6097211;28;20026;-71
2023/05/09 00:26:54;;;;;;;9.80;2.63;;;;;;;10.44;62.03;101394.28;6097707;28;20346;-71
2023/05/09 00:29:49;;;;;;;5.30;2.55;;;;;;;10.44;62.31;101405.75;6099636;28;20028;-71
2023/05/09 00:32:45;;;;;;;3.97;2.43;;;;;;;10.33;62.88;101397.84;6110407;28;20059;-71
2023/05/09 00:35:40;;;;;;;4.97;2.70;;;;;;;10.23;63.13;101388.97;6097223;28;20021;-71
2023/05/09 00:38:35;;;;;;;5.43;3.00;;;;;;;10.22;63.82;101397.88;6097175;28;20036;-69
2023/05/09 00:41:31;;;;;;;7.97;2.80;;;;;;;10.12;64.34;101381.91;6097363;28;20104;-70
2023/05/09 00:44:26;;;;;;;5.23;2.60;;;;;;;10.11;64.97;101389.94;6096824;28;20040;-69
2023/05/09 00:47:22;;;;;;;7.90;2.70;;;;;;;9.94;65.37;101378.13;6096957;28;20403;-70
2023/05/09 00:50:18;;;;;;;10.80;2.95;;;;;;;9.90;65.84;101381.13;6097487;28;20085;-72
2023/05/09 00:53:13;;;;;;;6.80;3.07;;;;;;;9.86;66.31;101366.47;6097390;28;20033;-70
2023/05/09 00:56:10;;;;;;;5.17;2.80;;;;;;;9.82;66.97;101370.31;6096214;28;20278;-71
2023/05/09 00:59:05;;;;;;;8.10;2.83;;;;;;;9.85;67.20;101375.34;6096771;28;20260;-70
2023/05/09 01:02:00;;;;;;;5.28;2.78;;;;;;;9.63;67.83;101364.81;6096549;28;20329;-72
2023/05/09 01:04:55;;;;;;;4.63;3.00;;;;;;;9.68;68.08;101375.88;6096391;28;20074;-70
2023/05/09 01:07:58;;;;;;;7.67;3.30;;;;;;;9.63;68.52;101372.75;6097415;28;20028;-71
2023/05/09 01:11:03;;;;;;;5.75;3.08;;;;;;;9.58;68.82;101375.78;6095250;28;20476;-71
2023/05/09 01:14:07;;;;;;;6.03;3.03;;;;;;;9.46;69.17;101351.13;6096468;28;20383;-71
2023/05/09 01:17:11;;;;;;;7.78;3.33;;;;;;;9.52;69.69;101363.88;6095289;28;20159;-69
2023/05/09 01:20:13;;;;;;;6.28;3.13;;;;;;;9.35;70.49;101347.66;6095600;28;20036;-70
2023/05/09 01:23:29;;;;;;;7.78;3.33;;;;;;;9.33;70.76;101345.16;6095379;28;20021;-69
2023/05/09 01:26:46;;;;;;;6.40;3.28;;;;;;;9.32;70.75;101332.88;6096777;28;20111;-71
2023/05/09 01:29:47;;;;;;;7.57;3.63;;;;;;;9.25;71.21;101336.97;6096247;28;20460;-70
2023/05/09 01:32:45;;;;;;;6.40;3.17;;;;;;;9.31;71.65;101343.59;6096979;28;20033;-70
2023/05/09 01:35:44;;;;;;;7.13;3.15;;;;;;;9.18;72.04;101330.50;6095999;28;20447;-71
2023/05/09 01:38:41;;;;;;;6.75;3.15;;;;;;;9.13;72.51;101332.66;6096978;28;20057;-70
2023/05/09 01:41:36;;;;;;;6.03;3.17;;;;;;;9.07;72.83;101327.03;6096446;28;20049;-70
2023/05/09 01:44:37;;;;;;;8.82;3.58;;;;;;;8.98;73.79;101342.66;6096703;28;20039;-72
2023/05/09 01:47:33;;;;;;;8.52;3.45;;;;;;;9.04;74.20;101336.03;6095356;28;20349;-72
2023/05/09 01:50:29;;;;;;;7.60;3.40;;;;;;;8.94;74.33;101332.44;6095468;28;20021;-69
2023/05/09 01:53:26;;;;;;;5.85;3.05;;;;;;;8.97;74.54;101313.66;6095817;28;20075;-71
2023/05/09 01:56:22;;;;;;;12.18;3.55;;;;;;;8.88;74.85;101317.91;6095000;28;20025;-70
2023/05/09 01:59:18;;;;;;;6.85;3.47;;;;;;;8.95;75.22;101318.25;6096421;28;20033;-73
2023/05/09 02:02:13;;;;;;;6.30;3.00;;;;;;;8.87;75.21;101316.19;6095322;28;20460;-72
2023/05/09 02:05:10;;;;;;;8.43;3.55;;;;;;;8.90;75.96;101333.63;6095638;28;20043;-71
2023/05/09 02:08:06;;;;;;;6.70;3.25;;;;;;;8.88;76.64;101330.28;6095418;28;20060;-70
2023/05/09 02:11:01;;;;;;;7.85;3.88;;;;;;;8.78;76.23;101324.00;6094461;28;20033;-70
2023/05/09 02:13:56;;;;;;;8.80;3.90;;;;;;;8.79;76.38;101325.69;6094303;28;20078;-71
2023/05/09 02:16:52;;;;;;;7.30;3.80;;;;;;;8.65;77.17;101315.34;6093756;28;20083;-70
2023/05/09 02:19:47;;;;;;;10.13;4.00;;;;;;;8.63;77.13;101314.63;6097202;28;20039;-70
2023/05/09 02:22:42;;;;;;;8.57;3.63;;;;;;;8.67;78.27;101329.31;6100086;28;20029;-71
2023/05/09 02:25:39;;;;;;;6.88;3.60;;;;;;;8.79;77.77;101325.69;6098732;28;20166;-72
2023/05/09 02:28:35;;;;;;;9.15;3.80;;;;;;;8.59;78.05;101316.66;6099143;28;20086;-71
2023/05/09 02:31:30;;;;;;;6.43;3.63;;;;;;;8.49;79.06;101309.56;6100106;28;20060;-71
2023/05/09 02:34:25;;;;;;;8.90;3.83;;;;;;;8.64;78.92;101326.91;6098489;28;20103;-70
2023/05/09 02:37:21;;;;;;;6.93;3.58;;;;;;;8.51;79.10;101311.13;6100138;28;20380;-73
2023/05/09 02:40:17;;;;;;;7.57;4.00;;;;;;;8.46;79.67;101323.84;6100097;28;20029;-70
2023/05/09 02:43:13;;;;;;;7.90;4.55;;;;;;;8.43;79.62;101315.31;6098325;28;20294;-71
2023/05/09 02:46:09;;;;;;;11.23;4.65;;;;;;;8.48;79.95;101324.56;6099368;28;20399;-72
2023/05/09 02:49:04;;;;;;;7.60;3.85;;;;;;;8.32;80.49;101310.84;6100878;28;20029;-71
2023/05/09 02:52:00;;;;;;;8.97;5.00;;;;;;;8.24;81.21;101305.25;6099966;28;20051;-72
2023/05/09 02:54:55;;;;;;;7.25;4.03;;;;;;;8.27;81.36;101305.91;6098665;28;20029;-71
2023/05/09 02:57:51;;;;;;;9.57;4.45;;;;;;;8.24;81.38;101292.91;6099838;28;20456;-71
2023/05/09 03:00:46;;;;;;;7.33;3.60;;;;;;;8.30;81.30;101303.03;6100822;28;20338;-69
2023/05/09 03:03:41;;;;;;;9.70;4.33;;;;;;;8.23;81.82;101288.59;6109040;28;20072;-69
2023/05/09 03:06:37;;;;;;;8.70;4.93;;;;;;;8.24;82.05;101302.63;6103173;28;20029;-72
2023/05/09 03:09:32;;;;;;;9.67;4.20;;;;;;;8.24;82.65;101298.19;6099132;28;20431;-72
2023/05/09 03:12:27;;;;;;;10.70;4.73;;;;;;;8.15;82.84;101295.41;6099075;28;20340;-72
2023/05/09 03:15:22;;;;;;;7.03;4.40;;;;;;;8.14;83.38;101297.22;6098677;28;20375;-70
2023/05/09 03:18:18;;;;;;;9.20;4.70;;;;;;;8.08;83.05;101284.47;6099102;28;20039;-72
2023/05/09 03:21:13;;;;;;;9.33;4.70;;;;;;;8.20;82.99;101277.41;6098939;28;20041;-70
2023/05/09 03:24:09;;;;;;;10.73;4.70;;;;;;;8.18;83.16;101290.72;6097648;28;20357;-71
2023/05/09 03:27:04;;;;;;;8.05;4.55;;;;;;;8.11;83.11;101288.66;6099411;28;20027;-70
2023/05/09 03:30:00;;;;;;;9.80;4.10;;;;;;;8.12;83.60;101296.50;6099148;28;20021;-70
2023/05/09 03:32:55;;;;;;;8.13;4.60;;;;;;;8.17;83.48;101283.78;6098845;28;20459;-71
2023/05/09 03:35:50;;;;;;;10.63;5.37;;;;;;;8.15;83.63;101277.75;6098438;28;20037;-73
2023/05/09 03:38:46;;;;;;;9.48;4.72;;;;;;;7.95;84.21;101278.44;6098620;28;20077;-71
2023/05/09 03:41:43;;;;;;;9.57;4.80;;;;;;;7.93;84.96;101285.63;6099306;28;20419;-70
2023/05/09 03:44:38;;;;;;;9.93;4.43;;;;;;;7.97;85.07;101284.44;6097665;28;20357;-72
2023/05/09 03:47:33;;;;;;;13.20;5.83;;;;;;;7.89;85.40;101284.16;6098368;28;20044;-71
2023/05/09 03:50:28;;;;;;;11.30;4.93;;;;;;;7.85;85.47;101271.31;6098705;28;20025;-71
2023/05/09 03:53:24;;;;;;;8.57;4.83;;;;;;;7.80;85.25;101269.00;6097538;28;20052;-71
2023/05/09 03:56:19;;;;;;;11.87;5.30;;;;;;;7.72;86.18;101266.09;6098215;28;20050;-71
2023/05/09 03:59:14;;;;;;;8.60;5.28;;;;;;;7.71;85.80;101267.06;6098149;28;20037;-72
2023/05/09 04:02:10;;;;;;;9.83;5.53;;;;;;;7.68;86.78;101256.72;6098210;28;20025;-69
2023/05/09 04:05:05;;;;;;;10.25;4.85;;;;;;;7.79;86.50;101262.06;6097484;28;20124;-71
2023/05/09 04:08:01;;;;;;;12.48;5.85;;;;;;;7.78;86.86;101273.56;6097837;28;20025;-70
2023/05/09 04:10:57;;;;;;;9.55;5.10;;;;;;;7.90;86.93;101263.88;6097799;28;20075;-71
2023/05/09 04:13:53;;;;;;;10.00;5.17;;;;;;;7.90;86.12;101259.44;6097780;28;20479;-69
2023/05/09 04:16:48;;;;;;;10.60;5.68;;;;;;;7.91;86.16;101265.59;6097462;28;20272;-70
2023/05/09 04:19:43;;;;;;;9.77;5.00;;;;;;;7.94;85.97;101262.69;6098266;28;20033;-71
2023/05/09 04:22:39;;;;;;;11.10;5.10;;;;;;;7.91;86.17;101261.13;6097186;28;20112;-72
2023/05/09 04:25:34;;;;;;;11.63;5.90;;;;;;;7.96;86.08;101266.91;6096951;28;20079;-71
2023/05/09 04:28:30;;;;;;;10.00;5.20;;;;;;;8.13;85.60;101260.31;6097656;28;20025;-71
2023/05/09 04:31:25;;;;;;;13.07;5.43;;;;;;;8.06;86.20;101262.63;6097512;28;20480;-70
2023/05/09 04:34:21;;;;;;;11.68;5.70;;;;;;;8.09;85.90;101265.03;6092861;28;20029;-70
2023/05/09 04:37:17;;;;;;;10.83;5.90;;;;;;;7.96;86.19;101251.06;6097227;28;20035;-72
2023/05/09 04:40:13;;;;;;;12.13;5.45;;;;;;;7.98;86.90;101249.16;6096569;28;20395;-71
2023/05/09 04:43:08;;;;;;;11.02;5.55;;;;;;;8.00;86.60;101260.44;6096831;28;20053;-71
2023/05/09 04:46:04;;;;;;;13.37;5.20;;;;;;;7.94;86.83;101245.03;6097040;28;20073;-71
2023/05/09 04:48:59;;;;;;;12.97;5.53;;;;;;;7.87;86.98;101249.13;6086555;28;20346;-70
2023/05/09 04:51:54;;;;;;;13.07;5.93;;;;;;;8.13;86.92;101258.53;6090323;28;20496;-70
2023/05/09 04:54:50;;;;;;;11.13;5.73;;;;;;;8.47;86.42;101264.75;6092697;28;20268;-72
2023/05/09 04:57:45;;;;;;;12.77;6.10;;;;;;;8.65;84.83;101247.44;6083587;28;20023;-70
2023/05/09 05:00:40;;;;;;;10.77;5.77;;;;;;;8.85;83.60;101233.50;6093105;28;20108;-73
2023/05/09 05:03:35;;;;;;;10.43;5.77;;;;;;;8.85;82.78;101251.16;6093748;28;20045;-70
2023/05/09 05:06:31;;;;;;;11.77;6.20;;;;;;;8.65;83.63;101257.19;6094676;28;20039;-73
2023/05/09 05:09:26;;;;;;;11.23;5.57;;;;;;;8.81;83.91;101236.50;6095305;28;20029;-71
2023/05/09 05:12:21;;;;;;;12.77;5.70;;;;;;;9.04;82.66;101246.09;6091459;28;20036;-72
2023/05/09 05:15:18;;;;;;;11.30;5.67;;;;;;;8.93;82.97;101232.88;6094714;28;20197;-71
2023/05/09 05:18:13;;;;;;;10.65;5.18;;;;;;;9.05;83.53;101218.66;6093079;28;20032;-72
2023/05/09 05:21:09;;;;;;;8.63;5.05;;;;;;;9.83;80.61;101221.88;6092476;28;20045;-71
2023/05/09 05:24:04;;;;;;;13.00;6.07;;;;;;;9.73;79.41;101204.22;6093736;28;20159;-72
2023/05/09 05:26:59;;;;;;;9.53;5.53;;;;;;;10.16;76.66;101203.13;6095072;28;20483;-72
2023/05/09 05:29:55;;;;;;;9.97;5.03;;;;;;;10.40;75.29;101210.78;6097038;28;20346;-70
2023/05/09 05:32:50;;;;;;;7.50;4.57;;;;;;;10.70;74.22;101216.09;6099985;28;20033;-72
2023/05/09 05:35:45;;;;;;;15.83;6.10;;;;;;;10.82;73.32;101200.88;6098189;28;20605;-71
2023/05/09 05:38:41;;;;;;;10.97;4.70;;;;;;;11.22;71.41;101193.69;6095644;28;20475;-70
2023/05/09 05:41:36;;;;;;;17.57;5.10;;;;;;;11.41;71.56;101218.59;6096020;28;20138;-70
2023/05/09 05:44:31;;;;;;;17.90;5.23;;;;;;;11.49;70.08;101190.38;6091937;28;20029;-71
2023/05/09 05:47:28;;;;;;;21.70;5.87;;;;;;;11.55;71.00;101203.06;6085112;28;20051;-70
2023/05/09 05:50:23;;;;;;;12.05;4.85;;;;;;;11.80;68.92;101199.03;6095277;28;20048;-70
2023/05/09 05:53:18;;;;;;;10.10;5.23;;;;;;;11.50;68.75;101197.34;6093752;28;20098;-69
2023/05/09 05:56:13;;;;;;;7.80;4.57;;;;;;;11.32;70.12;101183.09;6098129;28;20078;-69
2023/05/09 05:59:09;;;;;;;8.87;5.03;;;;;;;11.47;70.24;101208.25;6100265;28;20045;-70
2023/05/09 06:02:04;;;;;;;10.43;5.37;;;;;;;12.08;68.02;101200.81;6095481;28;20033;-72
2023/05/09 06:05:00;;;;;;;9.38;4.70;;;;;;;11.93;68.09;101192.44;6088069;28;20048;-69
2023/05/09 06:07:55;;;;;;;9.63;5.25;;;;;;;12.22;66.57;101207.50;6098209;28;20032;-72
2023/05/09 06:10:50;;;;;;;9.60;5.03;;;;;;;12.39;65.05;101202.22;6097218;28;20036;-68
2023/05/09 06:13:46;;;;;;;8.03;5.20;;;;;;;11.84;66.98;101188.00;6098532;28;20480;-72
2023/05/09 06:16:41;;;;;;;12.77;5.87;;;;;;;11.66;68.75;101192.28;6097870;28;20036;-69
2023/05/09 06:19:36;;;;;;;8.80;4.80;;;;;;;11.88;69.52;101192.03;6098358;28;20055;-70
2023/05/09 06:22:31;;;;;;;9.77;5.13;;;;;;;12.41;67.36;101194.13;6101476;28;20112;-72
2023/05/09 06:25:27;;;;;;;11.20;5.10;;;;;;;12.84;65.76;101181.03;6097882;28;20036;-72
2023/05/09 06:28:22;;;;;;;7.93;4.50;;;;;;;12.53;66.71;101183.13;6099506;28;20318;-72
2023/05/09 06:31:18;;;;;;;8.93;4.80;;;;;;;12.81;65.69;101177.81;6097224;28;20116;-70
2023/05/09 06:34:13;;;;;;;13.73;5.60;;;;;;;12.39;66.33;101174.81;6098642;28;20033;-70
2023/05/09 06:37:08;;;;;;;9.10;4.87;;;;;;;13.11;63.77;101181.03;6099381;28;20029;-70
2023/05/09 06:40:04;;;;;;;8.50;4.93;;;;;;;12.99;64.27;101184.03;6099372;28;20067;-72
2023/05/09 06:43:00;;;;;;;7.72;5.15;;;;;;;13.27;63.45;101177.69;6098058;28;20484;-71
2023/05/09 06:45:55;;;;;;;8.23;4.87;;;;;;;13.29;63.32;101180.22;6098468;28;20035;-70
2023/05/09 06:48:50;;;;;;;7.13;4.67;;;;;;;13.31;62.93;101172.91;6094162;28;20032;-70
2023/05/09 06:51:46;;;;;;;9.40;4.67;;;;;;;13.71;62.51;101162.56;6099091;28;20625;-71
2023/05/09 06:54:41;;;;;;;8.80;4.97;;;;;;;14.03;61.13;101149.47;6097069;28;20283;-70
2023/05/09 06:57:38;;;;;;;8.40;4.70;;;;;;;14.12;61.77;101145.00;6099130;28;20128;-69
2023/05/09 07:00:33;;;;;;;9.05;4.57;;;;;;;14.02;60.78;101153.09;6098953;28;20021;-70
2023/05/09 07:03:29;;;;;;;7.27;4.30;;;;;;;13.65;61.74;101147.19;6096885;28;20036;-71
2023/05/09 07:06:24;;;;;;;7.68;4.95;;;;;;;13.90;61.81;101132.22;6098336;28;20041;-72
2023/05/09 07:09:19;;;;;;;9.20;5.07;;;;;;;14.22;60.44;101146.56;6098593;28;20029;-69
2023/05/09 07:12:15;;;;;;;11.83;5.00;;;;;;;14.13;61.00;101123.50;6098080;28;20017;-70
2023/05/09 07:15:10;;;;;;;7.83;4.37;;;;;;;14.49;59.85;101136.72;6098275;28;20033;-72
2023/05/09 07:18:05;;;;;;;13.27;4.47;;;;;;;14.45;60.21;101128.22;6089800;28;20064;-73
2023/05/09 07:21:01;;;;;;;8.90;4.33;;;;;;;14.90;58.82;101128.66;6096915;28;20025;-73
2023/05/09 07:23:57;;;;;;;7.20;3.97;;;;;;;15.22;57.16;101117.19;6095699;28;20479;-75
2023/05/09 07:26:52;;;;;;;9.32;4.90;;;;;;;15.24;57.35;101130.41;6097567;28;20033;-72
2023/05/09 07:29:51;;;;;;;11.35;4.57;;;;;;;15.36;56.72;101123.72;6097654;28;20029;-70
2023/05/09 07:32:46;;;;;;;7.45;4.55;;;;;;;15.28;57.49;101111.19;6096074;28;20068;-73
2023/05/09 07:35:41;;;;;;;8.90;4.40;;;;;;;14.77;58.75;101117.63;6096857;28;20040;-71
2023/05/09 07:38:38;;;;;;;6.03;3.73;;;;;;;15.45;57.26;101112.88;6094845;28;20033;-72
2023/05/09 07:41:33;;;;;;;8.75;4.47;;;;;;;15.57;56.16;101099.19;6095439;28;20044;-70
2023/05/09 07:44:30;;;;;;;7.38;4.18;;;;;;;15.71;56.34;101088.63;6095873;28;20420;-69
2023/05/09 07:47:26;;;;;;;8.32;4.53;;;;;;;15.38;57.07;101076.28;6099311;28;20403;-72
2023/05/09 07:50:22;;;;;;;7.80;4.15;;;;;;;15.82;55.91;101072.22;6095046;28;20035;-71
2023/05/09 07:53:17;;;;;;;9.35;4.57;;;;;;;16.05;54.96;101086.56;6096777;28;20216;-69
2023/05/09 07:56:13;;;;;;;7.53;4.20;;;;;;;15.91;54.62;101070.38;6097624;28;20040;-69
2023/05/09 07:59:08;;;;;;;8.07;4.60;;;;;;;15.93;56.55;101079.03;6107921;28;20022;-69
2023/05/09 08:02:03;;;;;;;8.23;4.40;;;;;;;16.41;53.43;101062.81;6105966;28;20267;-69
2023/05/09 08:04:59;;;;;;;8.53;4.43;;;;;;;16.52;53.72;101075.78;6098314;28;20017;-71
2023/05/09 08:07:54;;;;;;;7.38;4.20;;;;;;;16.40;53.89;101050.44;6103306;28;20024;-71
2023/05/09 08:10:49;;;;;;;7.60;4.30;;;;;;;16.83;53.82;101061.56;6101340;28;20086;-71
2023/05/09 08:13:45;;;;;;;7.67;4.70;;;;;;;16.86;53.54;101048.66;6095496;28;20025;-70
2023/05/09 08:16:42;;;;;;;6.72;4.07;;;;;;;16.98;52.48;101031.19;6093593;28;20037;-69
2023/05/09 08:19:37;;;;;;;6.88;4.40;;;;;;;16.93;51.84;101035.41;6097118;28;20047;-69
2023/05/09 08:22:32;;;;;;;9.23;4.23;;;;;;;16.81;52.84;101042.19;6096944;28;20037;-69
2023/05/09 08:25:28;;;;;;;7.63;4.43;;;;;;;16.88;53.15;101037.75;6095887;28;20033;-71
2023/05/09 08:28:23;;;;;;;9.93;4.93;;;;;;;17.21;52.25;101021.25;6095836;28;20035;-69
2023/05/09 08:31:19;;;;;;;6.47;3.60;;;;;;;17.66;51.16;101019.50;6096203;28;20025;-72
2023/05/09 08:34:14;;;;;;;5.60;3.90;;;;;;;17.82;50.46;101012.09;6093039;28;20119;-70
2023/05/09 08:37:10;;;;;;;7.78;3.42;;;;;;;18.21;49.09;101014.44;6085864;28;20307;-71
2023/05/09 08:40:09;;;;;;;7.05;3.42;;;;;;;17.81;47.97;101015.78;6093276;28;20075;-72
2023/05/09 08:43:06;;;;;;;6.55;3.85;;;;;;;17.87;49.00;101029.47;6095951;28;20029;-69
2023/05/09 08:46:06;;;;;;;9.55;3.35;;;;;;;18.53;47.06;101010.53;6096141;28;20021;-71
2023/05/09 08:49:04;;;;;;;4.93;2.90;;;;;;;18.93;45.79;101001.81;6095760;28;20021;-71
2023/05/09 08:51:59;;;;;;;7.38;3.47;;;;;;;18.81;44.64;100995.28;6093554;28;20078;-68
2023/05/09 08:54:55;;;;;;;5.65;3.00;;;;;;;18.38;45.63;101001.63;6094872;28;20033;-70
2023/05/09 08:57:51;;;;;;;5.43;2.95;;;;;;;18.07;45.72;100999.22;6094648;28;20025;-73
2023/05/09 09:00:46;;;;;;;4.28;3.10;;;;;;;18.15;46.30;100992.91;6096496;28;20045;-70
2023/05/09 09:03:46;;;;;;;7.25;3.83;;;;;;;17.76;46.66;100995.91;6092737;28;21352;-70
2023/05/09 09:06:42;;;;;;;4.55;3.03;;;;;;;18.22;46.85;100991.13;6096649;28;20100;-69
2023/05/09 09:09:37;;;;;;;8.68;3.17;;;;;;;18.48;45.54;100991.44;6093707;28;20482;-72
2023/05/09 09:12:33;;;;;;;6.85;2.92;;;;;;;18.32;45.97;100980.91;6096544;28;20079;-72
2023/05/09 09:15:33;;;;;;;6.60;3.33;;;;;;;18.39;45.84;100971.91;6095525;28;20052;-73
2023/05/09 09:18:29;;;;;;;3.97;2.63;;;;;;;18.48;46.66;100980.69;6087325;28;20026;-71
2023/05/09 09:21:25;;;;;;;5.70;3.08;;;;;;;18.89;45.72;100979.03;6095163;28;20580;-71
2023/05/09 09:24:23;;;;;;;5.85;3.17;;;;;;;18.83;45.44;100965.56;6095185;28;20762;-70
2023/05/09 09:27:18;;;;;;;5.75;3.30;;;;;;;19.03;45.14;100980.81;6093382;28;20059;-72
2023/05/09 09:30:14;;;;;;;8.90;3.47;;;;;;;18.77;46.00;100972.53;6097903;28;20021;-69
2023/05/09 09:33:18;;;;;;;7.90;3.90;;;;;;;18.52;46.14;100975.78;6093164;28;20039;-73
2023/05/09 09:36:13;;;;;;;6.43;3.42;;;;;;;18.66;46.53;100951.56;6100257;28;20450;-69
2023/05/09 09:39:11;;;;;;;7.07;3.40;;;;;;;19.23;46.25;100954.09;6099239;28;20031;-74
2023/05/09 09:42:11;;;;;;;5.38;3.67;;;;;;;18.91;46.41;100936.69;6100856;28;20344;-72
2023/05/09 09:45:16;;;;;;;5.93;3.42;;;;;;;19.29;47.57;100957.84;6100069;28;20052;-70
2023/05/09 09:48:12;;;;;;;5.50;4.13;;;;;;;19.27;46.59;100943.78;6102056;28;20020;-68
2023/05/09 09:51:09;;;;;;;7.25;3.58;;;;;;;19.42;46.54;100948.03;6102061;28;20079;-71
2023/05/09 09:54:09;;;;;;;5.82;3.90;;;;;;;19.35;46.56;100946.31;6097934;28;20032;-70
2023/05/09 09:57:04;;;;;;;7.78;3.83;;;;;;;19.13;46.66;100942.00;6099484;28;20082;-71
2023/05/09 09:59:59;;;;;;;8.80;4.27;;;;;;;19.08;47.16;100913.00;6095812;28;20527;-71
2023/05/09 10:02:58;;;;;;;7.80;3.58;;;;;;;19.62;46.64;100915.88;6095897;28;20029;-70
2023/05/09 10:06:00;;;;;;;8.77;4.05;;;;;;;19.31;47.06;100916.28;6099277;28;20029;-70
2023/05/09 10:08:55;;;;;;;10.02;4.28;;;;;;;19.40;47.17;100912.44;6097484;28;20455;-70
2023/05/09 10:11:51;;;;;;;10.65;3.75;;;;;;;19.32;47.13;100906.38;6099966;28;20036;-70
2023/05/09 10:14:47;;;;;;;6.72;3.00;;;;;;;19.87;45.58;100905.38;6098726;28;20025;-73
2023/05/09 10:17:42;;;;;;;6.10;3.85;;;;;;;19.87;45.30;100905.38;6098365;28;20056;-70
2023/05/09 10:20:40;;;;;;;5.67;4.10;;;;;;;19.57;44.98;100892.22;6099885;28;20033;-68
2023/05/09 10:23:36;;;;;;;6.63;4.13;;;;;;;19.75;45.10;100904.31;6100262;28;20033;-69
2023/05/09 10:26:36;;;;;;;7.65;3.60;;;;;;;19.86;45.20;100891.13;6116878;28;20032;-71
2023/05/09 10:29:37;;;;;;;8.32;3.97;;;;;;;19.55;45.87;100888.09;6099239;28;20035;-71
2023/05/09 10:32:42;;;;;;;6.80;3.80;;;;;;;20.15;45.18;100871.94;6087795;28;20027;-70
2023/05/09 10:35:47;;;;;;;10.50;4.03;;;;;;;20.02;44.53;100873.75;6097758;28;20087;-75
2023/05/09 10:38:42;;;;;;;8.68;4.43;;;;;;;20.30;44.29;100849.41;6093414;28;20059;-73
2023/05/09 10:41:38;;;;;;;7.07;3.45;;;;;;;20.53;44.78;100863.28;6091923;28;20500;-73
2023/05/09 10:44:34;;;;;;;6.90;3.35;;;;;;;20.25;45.22;100843.81;6097206;28;20086;-74
2023/05/09 10:47:30;;;;;;;8.48;3.47;;;;;;;20.63;44.34;100844.84;6097041;28;20044;-71
2023/05/09 10:50:26;;;;;;;7.90;3.30;;;;;;;21.06;44.63;100835.22;6099637;28;20039;-73
2023/05/09 10:53:23;;;;;;;5.88;3.22;;;;;;;20.71;44.21;100815.81;6096803;28;20029;-73
2023/05/09 10:56:28;;;;;;;7.03;4.07;;;;;;;20.03;45.92;100811.63;6098660;28;20104;-71
2023/05/09 10:59:37;;;;;;;7.00;3.53;;;;;;;20.57;46.00;100824.13;6102498;28;20522;-72
2023/05/09 11:02:33;;;;;;;5.72;3.50;;;;;;;20.40;44.97;100809.41;6099477;28;20036;-70
2023/05/09 11:05:37;;;;;;;8.35;4.18;;;;;;;20.41;44.71;100808.38;6097257;28;20033;-69
2023/05/09 11:08:33;;;;;;;7.30;4.35;;;;;;;20.37;45.14;100802.56;6087014;28;20051;-72
2023/05/09 11:11:28;;;;;;;6.78;3.60;;;;;;;20.52;45.34;100805.88;6096110;28;20033;-69
2023/05/09 11:14:45;;;;;;;7.00;4.20;;;;;;;20.41;45.75;100794.91;6097990;28;20040;-70
2023/05/09 11:17:41;;;;;;;8.07;5.45;;;;;;;20.36;46.56;100789.28;6097398;28;20060;-74
2023/05/09 11:20:42;;;;;;;10.50;4.53;;;;;;;20.48;45.54;100776.88;6094896;28;20073;-73
2023/05/09 11:23:38;;;;;;;7.63;4.28;;;;;;;20.55;45.82;100783.91;6088006;28;20029;-72
2023/05/09 11:26:33;;;;;;;13.38;4.18;;;;;;;20.45;44.75;100750.34;6095017;28;20094;-72
2023/05/09 11:29:28;;;;;;;5.87;3.60;;;;;;;20.80;44.61;100754.41;6094301;28;20464;-69
2023/05/09 11:32:30;;;;;;;6.65;3.05;;;;;;;21.21;43.91;100768.41;6094702;28;20602;-72
2023/05/09 11:35:26;;;;;;;5.80;3.78;;;;;;;20.64;45.67;100736.00;6097354;28;20415;-73
2023/05/09 11:38:22;;;;;;;6.18;3.85;;;;;;;20.55;45.82;100746.16;6099003;28;20024;-69
2023/05/09 11:41:17;;;;;;;6.28;3.70;;;;;;;20.82;45.52;100732.66;6098383;28;20045;-69
2023/05/09 11:44:17;;;;;;;6.57;3.40;;;;;;;21.33;44.37;100753.19;6096015;28;20171;-70
2023/05/09 11:47:12;;;;;;;6.47;3.38;;;;;;;21.11;43.87;100737.53;6097290;28;20339;-72
2023/05/09 11:50:09;;;;;;;6.87;3.17;;;;;;;21.22;43.48;100709.91;6095307;28;20032;-70
2023/05/09 11:53:07;;;;;;;5.22;3.40;;;;;;;20.92;43.69;100731.16;6096510;28;20119;-70
2023/05/09 11:56:03;;;;;;;6.65;3.55;;;;;;;20.87;44.80;100733.66;6096960;28;20031;-69
2023/05/09 11:58:58;;;;;;;9.55;4.18;;;;;;;21.19;44.27;100732.75;6092456;28;20033;-70
2023/05/09 12:01:53;;;;;;;7.72;5.03;;;;;;;20.82;44.61;100732.66;6097496;28;20041;-71
2023/05/09 12:04:49;;;;;;;9.10;3.70;;;;;;;20.75;45.27;100724.56;6096721;28;20049;-72
2023/05/09 12:07:45;;;;;;;8.07;4.13;;;;;;;21.02;44.67;100719.91;6095391;28;20363;-69
2023/05/09 12:10:40;;;;;;;7.43;3.92;;;;;;;21.11;44.36;100710.56;6096849;28;20025;-69
2023/05/09 12:13:46;;;;;;;5.90;3.80;;;;;;;20.93;44.58;100708.53;6097216;28;20048;-72
2023/05/09 12:16:45;;;;;;;7.57;4.10;;;;;;;20.97;44.66;100717.03;6097250;28;20056;-69
2023/05/09 12:19:41;;;;;;;7.50;4.07;;;;;;;21.47;43.83;100705.38;6097019;28;20103;-72
2023/05/09 12:22:36;;;;;;;11.90;4.05;;;;;;;21.42;44.60;100699.81;6097449;28;20025;-71
2023/05/09 12:25:31;;;;;;;6.85;3.55;;;;;;;21.49;44.05;100702.47;6095941;28;20036;-72
2023/05/09 12:28:27;;;;;;;7.33;3.83;;;;;;;21.38;43.60;100695.91;6097691;28;20029;-71
2023/05/09 12:31:22;;;;;;;8.98;4.20;;;;;;;21.05;43.88;100693.34;6097296;28;20263;-70
2023/05/09 12:34:18;;;;;;;8.67;3.93;;;;;;;21.27;43.80;100685.78;6094676;28;20419;-73
2023/05/09 12:37:17;;;;;;;10.30;4.22;;;;;;;21.52;43.76;100678.59;6095335;28;20286;-69
2023/05/09 12:40:14;;;;;;;6.93;4.07;;;;;;;21.52;43.19;100678.59;6097128;28;20041;-73
2023/05/09 12:43:09;;;;;;;8.68;4.00;;;;;;;21.73;42.84;100690.88;6096619;28;20081;-71
2023/05/09 12:46:05;;;;;;;6.87;3.50;;;;;;;21.59;43.16;100679.34;6096365;28;20349;-69
2023/05/09 12:49:00;;;;;;;7.97;4.38;;;;;;;21.54;42.85;100690.00;6098107;28;20017;-70
2023/05/09 12:51:57;;;;;;;5.35;3.63;;;;;;;21.99;42.66;100674.50;6110764;28;20021;-69
2023/05/09 12:54:53;;;;;;;8.23;4.43;;;;;;;22.14;41.61;100661.50;6099056;28;20123;-73
2023/05/09 12:57:57;;;;;;;10.65;4.38;;;;;;;21.97;42.35;100676.59;6096227;28;20468;-72
2023/05/09 13:00:53;;;;;;;8.00;3.95;;;;;;;21.92;42.02;100671.03;6096840;28;20422;-70
2023/05/09 13:03:59;;;;;;;8.50;3.65;;;;;;;22.18;42.39;100667.25;6095986;28;20039;-70
2023/05/09 13:06:56;;;;;;;8.75;3.72;;;;;;;22.03;43.00;100646.00;6090237;28;20028;-69
2023/05/09 13:09:59;;;;;;;8.07;4.18;;;;;;;22.60;42.01;100661.00;6095851;28;20021;-74
2023/05/09 13:12:55;;;;;;;10.10;4.47;;;;;;;22.14;42.80;100647.16;6096906;28;20059;-70
2023/05/09 13:15:51;;;;;;;7.75;3.70;;;;;;;22.03;42.19;100635.19;6095266;28;20051;-71
2023/05/09 13:18:46;;;;;;;6.70;3.60;;;;;;;21.69;43.00;100649.16;6094023;28;20025;-72
2023/05/09 13:21:42;;;;;;;6.68;4.03;;;;;;;21.12;43.69;100639.38;6095404;28;20025;-71
2023/05/09 13:24:37;;;;;;;9.27;4.20;;;;;;;20.99;44.57;100634.88;6095559;28;20045;-69
2023/05/09 13:27:32;;;;;;;7.97;3.87;;;;;;;20.93;44.49;100624.94;6096244;28;20025;-71
2023/05/09 13:30:28;;;;;;;8.13;3.78;;;;;;;21.34;43.75;100624.53;6095495;28;20057;-70
2023/05/09 13:33:24;;;;;;;9.43;3.85;;;;;;;21.37;43.63;100616.00;6089333;28;20064;-70
2023/05/09 13:36:19;;;;;;;7.80;4.27;;;;;;;21.54;43.66;100614.41;6095453;28;20029;-72
2023/05/09 13:39:15;;;;;;;9.32;3.72;;;;;;;21.53;43.07;100617.31;6096552;28;20017;-69
2023/05/09 13:42:10;;;;;;;8.57;3.63;;;;;;;21.59;43.06;100619.97;6095886;28;20033;-72